Unbenanntes Dokument
Flugplatz Bielefeld Platzwetter

 

Aktuelles Platzwetter am Flugplatz Bielefeld EDLI

26.06.17 ,22:19 Uhr

METAR EDLI 262218Z 04010KT 9999 14/10 Q1014

 

Windwerte

 

Wolkenuntergrenzen

Wind aktuell:040 ° mit 9 kt
Wind 10 min Extrem:
20 ° bis 70 ° mit 6 kt bis 17 kt
Seitenwindkomponente: -9.8 kt
Wolkengrenze 1:
Wolkengrenze 2:
Wolkengrenze 3:

Webcam

Temperatur

       

Sichtweite:

20.000 Meter

14.3 °C
Taupunkt: 10.5 °C
Luftfeuchtigkeit: 77 %

Luftdruck:

QNH: 1014 hPa (29.94 in Hg)
QFE: 998 hPa (29.47 in Hg)

Diese Daten werden automatisch ermittelt bzw. übertragen und sind nicht geprüft. Für die Richtigkeit wird daher keine Gewähr übernommen. Sie ersetzen im übrigen nicht die Flugwetterberatung. Alle Zeitangaben beziehen sich auf UTC. Die Seite wird einmal die Minute aktualisiert! Sollten Sie ein ältere Seite haben, so drücken Sie bitte auf den Reload Button Ihres Browsers!